Time;durP1;ratioP1;P1;durP2;ratioP2;P2;SDS_P1;SDS_P2;PMS_P1;PMS_P2;Temp;Humidity;BMP_temperature;BMP_pressure;BME280_temperature;BME280_humidity;BME280_pressure;Samples;Min_cycle;Max_cycle;Signal;HPM_P1;HPM_P2
2022/03/28 00:01:11;;;;;;;8.47;5.53;;;;;;;;;;5057572;28;20202;-89
2022/03/28 00:03:40;;;;;;;9.07;5.67;;;;;;;;;;5049685;28;20271;-89
2022/03/28 00:06:09;;;;;;;8.83;5.60;;;;;;;;;;5044256;28;20209;-89
2022/03/28 00:08:36;;;;;;;8.90;5.00;;;;;;;;;;5051506;28;20221;-89
2022/03/28 00:11:04;;;;;;;10.87;6.07;;;;;;;;;;5057715;28;20260;-90
2022/03/28 00:13:31;;;;;;;8.13;5.00;;;;;;;;;;5048677;28;20750;-90
2022/03/28 00:15:58;;;;;;;8.50;6.00;;;;;;;;;;5038101;28;20717;-89
2022/03/28 00:18:26;;;;;;;10.60;5.70;;;;;;;;;;5050114;28;20653;-90
2022/03/28 00:20:55;;;;;;;12.37;6.33;;;;;;;;;;5048818;28;20202;-89
2022/03/28 00:23:23;;;;;;;9.93;5.83;;;;;;;;;;5042756;28;20210;-89
2022/03/28 00:25:50;;;;;;;10.27;5.80;;;;;;;;;;5047251;28;20242;-89
2022/03/28 00:28:18;;;;;;;11.93;6.40;;;;;;;;;;5069117;28;20245;-90
2022/03/28 00:30:45;;;;;;;11.03;5.47;;;;;;;;;;5066955;28;20685;-90
2022/03/28 00:33:12;;;;;;;7.30;5.07;;;;;;;;;;5036350;28;20211;-90
2022/03/28 00:35:40;;;;;;;8.67;5.07;;;;;;;;;;5060724;28;20263;-90
2022/03/28 00:38:09;;;;;;;9.67;6.00;;;;;;;;;;5048874;28;20236;-89
2022/03/28 00:40:37;;;;;;;10.23;5.77;;;;;;;;;;5043908;28;20288;-90
2022/03/28 00:43:06;;;;;;;7.27;4.87;;;;;;;;;;5057496;28;20214;-89
2022/03/28 00:45:34;;;;;;;9.80;5.17;;;;;;;;;;5063678;28;20217;-89
2022/03/28 00:48:02;;;;;;;10.80;5.93;;;;;;;;;;5068659;28;20252;-88
2022/03/28 00:50:30;;;;;;;8.73;5.23;;;;;;;;;;5051735;28;20214;-88
2022/03/28 00:52:58;;;;;;;8.70;5.67;;;;;;;;;;5052889;28;20212;-88
2022/03/28 00:55:27;;;;;;;10.43;6.20;;;;;;;;;;5048638;28;20225;-89
2022/03/28 00:57:54;;;;;;;8.90;5.73;;;;;;;;;;5048529;28;20301;-89
2022/03/28 01:00:22;;;;;;;9.40;5.60;;;;;;;;;;5034475;28;20295;-90
2022/03/28 01:02:50;;;;;;;9.87;5.73;;;;;;;;;;5039106;28;20267;-89
2022/03/28 01:05:17;;;;;;;8.57;5.93;;;;;;;;;;5048445;28;20237;-89
2022/03/28 01:07:44;;;;;;;5.97;4.63;;;;;;;;;;5048469;28;20209;-90
2022/03/28 01:10:12;;;;;;;10.73;6.07;;;;;;;;;;5047208;28;20206;-89
2022/03/28 01:12:43;;;;;;;7.37;5.43;;;;;;;;;;5067147;28;20213;-90
2022/03/28 01:15:11;;;;;;;10.07;5.57;;;;;;;;;;5067919;28;20257;-89
2022/03/28 01:20:26;;;;;;;9.43;5.43;;;;;;;;;;5050337;28;20209;-90
2022/03/28 01:22:54;;;;;;;11.17;5.40;;;;;;;;;;5056377;28;20223;-90
2022/03/28 01:25:23;;;;;;;10.23;5.63;;;;;;;;;;5050398;28;20252;-88
2022/03/28 01:27:52;;;;;;;8.43;6.17;;;;;;;;;;5052511;28;20220;-89
2022/03/28 01:30:20;;;;;;;8.90;5.57;;;;;;;;;;5053138;28;20247;-89
2022/03/28 01:32:48;;;;;;;11.83;5.53;;;;;;;;;;5052824;28;20287;-90
2022/03/28 01:35:25;;;;;;;10.63;5.47;;;;;;;;;;5052228;28;20234;-90
2022/03/28 01:37:53;;;;;;;10.67;5.80;;;;;;;;;;5047202;28;20288;-89
2022/03/28 01:40:21;;;;;;;7.57;4.37;;;;;;;;;;5040546;28;20271;-89
2022/03/28 01:42:49;;;;;;;8.97;4.80;;;;;;;;;;5068823;28;20209;-90
2022/03/28 01:45:18;;;;;;;9.13;4.90;;;;;;;;;;5072137;28;20235;-89
2022/03/28 01:47:45;;;;;;;7.83;4.77;;;;;;;;;;5042695;28;20214;-89
2022/03/28 01:50:13;;;;;;;11.10;4.70;;;;;;;;;;5055563;28;20201;-89
2022/03/28 01:52:40;;;;;;;8.80;5.30;;;;;;;;;;5071158;28;20212;-89
2022/03/28 01:55:09;;;;;;;10.90;5.30;;;;;;;;;;5055680;28;20226;-89
2022/03/28 01:57:38;;;;;;;7.43;5.77;;;;;;;;;;5062042;28;20691;-89
2022/03/28 02:00:06;;;;;;;9.77;5.50;;;;;;;;;;5052205;28;20197;-89
2022/03/28 02:02:33;;;;;;;12.17;5.70;;;;;;;;;;5046764;28;20587;-90
2022/03/28 02:05:01;;;;;;;9.00;5.23;;;;;;;;;;5059065;28;20253;-89
2022/03/28 02:07:28;;;;;;;10.60;5.90;;;;;;;;;;5071545;28;20210;-90
2022/03/28 02:09:56;;;;;;;9.57;5.70;;;;;;;;;;5071541;28;20225;-89
2022/03/28 02:12:23;;;;;;;10.47;5.50;;;;;;;;;;5057433;28;20212;-89
2022/03/28 02:14:52;;;;;;;11.73;6.23;;;;;;;;;;5057686;28;20236;-90
2022/03/28 02:17:19;;;;;;;9.63;5.50;;;;;;;;;;5071457;28;20209;-89
2022/03/28 02:19:47;;;;;;;9.90;6.37;;;;;;;;;;5064125;28;20231;-90
2022/03/28 02:22:14;;;;;;;9.80;6.03;;;;;;;;;;5044177;28;20234;-90
2022/03/28 02:24:41;;;;;;;10.97;5.50;;;;;;;;;;5050495;28;20582;-89
2022/03/28 02:27:09;;;;;;;9.50;5.53;;;;;;;;;;5051315;28;20622;-89
2022/03/28 02:29:36;;;;;;;8.70;5.37;;;;;;;;;;5044647;28;20279;-89
2022/03/28 02:32:05;;;;;;;12.50;6.10;;;;;;;;;;5059078;28;20251;-89
2022/03/28 02:34:32;;;;;;;6.73;4.90;;;;;;;;;;5050353;28;20230;-89
2022/03/28 02:37:00;;;;;;;8.57;5.53;;;;;;;;;;5039264;28;20210;-89
2022/03/28 02:39:27;;;;;;;8.00;5.03;;;;;;;;;;5026960;28;20210;-89
2022/03/28 02:41:54;;;;;;;9.80;6.60;;;;;;;;;;5051557;28;20205;-89
2022/03/28 02:44:22;;;;;;;9.13;6.40;;;;;;;;;;5070210;28;20405;-89
2022/03/28 02:46:49;;;;;;;8.77;5.33;;;;;;;;;;5048229;28;20261;-90
2022/03/28 02:49:19;;;;;;;9.83;5.73;;;;;;;;;;5058331;28;20268;-88
2022/03/28 02:51:46;;;;;;;9.83;5.63;;;;;;;;;;5067806;28;20209;-89
2022/03/28 02:54:14;;;;;;;8.40;5.37;;;;;;;;;;5070340;28;20229;-90
2022/03/28 02:56:42;;;;;;;11.10;6.17;;;;;;;;;;5055150;28;20236;-90
2022/03/28 02:59:09;;;;;;;8.90;6.10;;;;;;;;;;5053236;28;20189;-89
2022/03/28 03:01:36;;;;;;;10.17;6.10;;;;;;;;;;5055169;28;20206;-89
2022/03/28 03:04:04;;;;;;;10.33;6.40;;;;;;;;;;5046947;28;20234;-89
2022/03/28 03:06:32;;;;;;;9.53;5.87;;;;;;;;;;5050610;28;20208;-90
2022/03/28 03:09:00;;;;;;;9.80;6.20;;;;;;;;;;5061665;28;20213;-90
2022/03/28 03:11:27;;;;;;;8.70;5.70;;;;;;;;;;5070400;28;20220;-90
2022/03/28 03:13:56;;;;;;;11.67;6.27;;;;;;;;;;5055197;28;20206;-90
2022/03/28 03:16:24;;;;;;;8.40;5.67;;;;;;;;;;5049689;28;20205;-90
2022/03/28 03:18:51;;;;;;;8.87;5.70;;;;;;;;;;5060931;28;20198;-90
2022/03/28 03:21:19;;;;;;;8.70;5.63;;;;;;;;;;5045697;28;20269;-90
2022/03/28 03:23:48;;;;;;;9.53;5.80;;;;;;;;;;5047845;28;20210;-90
2022/03/28 03:26:15;;;;;;;12.87;7.83;;;;;;;;;;5050218;28;20258;-89
2022/03/28 03:28:42;;;;;;;12.40;5.17;;;;;;;;;;5050445;28;20299;-89
2022/03/28 03:31:10;;;;;;;9.57;6.30;;;;;;;;;;5046246;28;20202;-89
2022/03/28 03:33:37;;;;;;;8.70;6.53;;;;;;;;;;5046737;28;20581;-89
2022/03/28 03:36:06;;;;;;;10.73;6.13;;;;;;;;;;5060762;28;20651;-90
2022/03/28 03:38:33;;;;;;;11.20;6.03;;;;;;;;;;5069423;28;20788;-89
2022/03/28 03:41:02;;;;;;;10.37;5.50;;;;;;;;;;5057023;28;20201;-89
2022/03/28 03:43:29;;;;;;;7.60;4.83;;;;;;;;;;5061179;28;20696;-89
2022/03/28 03:45:57;;;;;;;9.70;5.90;;;;;;;;;;5068132;28;20221;-89
2022/03/28 03:48:26;;;;;;;8.83;5.73;;;;;;;;;;5062402;28;20227;-89
2022/03/28 03:50:53;;;;;;;9.93;4.83;;;;;;;;;;5048069;28;20213;-89
2022/03/28 03:53:20;;;;;;;10.97;5.33;;;;;;;;;;5049569;28;20201;-90
2022/03/28 03:55:48;;;;;;;7.93;5.03;;;;;;;;;;5049326;28;20287;-89
2022/03/28 03:58:17;;;;;;;11.23;5.63;;;;;;;;;;5044318;28;20218;-90
2022/03/28 04:00:45;;;;;;;9.37;5.77;;;;;;;;;;5044606;28;20210;-90
2022/03/28 04:03:12;;;;;;;10.93;6.47;;;;;;;;;;5057355;28;20546;-89
2022/03/28 04:05:39;;;;;;;7.70;5.83;;;;;;;;;;5046627;28;20234;-90
2022/03/28 04:08:07;;;;;;;9.73;5.90;;;;;;;;;;5046193;28;20202;-89
2022/03/28 04:10:35;;;;;;;13.27;6.33;;;;;;;;;;5063917;28;20692;-89
2022/03/28 04:13:02;;;;;;;7.77;5.90;;;;;;;;;;5068968;28;20213;-89
2022/03/28 04:15:31;;;;;;;8.23;5.27;;;;;;;;;;5042004;28;20628;-90
2022/03/28 04:17:58;;;;;;;10.60;5.80;;;;;;;;;;5058895;28;20638;-89
2022/03/28 04:20:28;;;;;;;9.17;6.00;;;;;;;;;;5069010;28;20204;-90
2022/03/28 04:22:55;;;;;;;11.47;6.77;;;;;;;;;;5061088;28;20211;-89
2022/03/28 04:25:23;;;;;;;10.43;6.50;;;;;;;;;;5044002;28;20577;-89
2022/03/28 04:27:50;;;;;;;11.00;5.50;;;;;;;;;;5066125;28;20586;-90
2022/03/28 04:30:18;;;;;;;8.57;5.67;;;;;;;;;;5068783;28;20225;-90
2022/03/28 04:32:46;;;;;;;9.90;5.90;;;;;;;;;;5056518;28;20691;-89
2022/03/28 04:35:14;;;;;;;8.63;5.97;;;;;;;;;;5048699;28;20249;-89
2022/03/28 04:37:42;;;;;;;9.73;5.87;;;;;;;;;;5065199;28;20251;-91
2022/03/28 04:40:11;;;;;;;9.00;5.90;;;;;;;;;;5028092;28;20209;-89
2022/03/28 04:42:38;;;;;;;10.80;5.90;;;;;;;;;;5058332;28;20202;-90
2022/03/28 04:45:06;;;;;;;9.63;6.03;;;;;;;;;;5051425;28;20267;-90
2022/03/28 04:47:34;;;;;;;10.67;5.77;;;;;;;;;;5035053;28;20558;-87
2022/03/28 04:50:03;;;;;;;11.27;5.93;;;;;;;;;;5045359;28;20213;-90
2022/03/28 04:52:38;;;;;;;9.60;5.90;;;;;;;;;;5059803;28;20271;-89
2022/03/28 04:55:05;;;;;;;8.60;5.30;;;;;;;;;;5047399;28;20715;-90
2022/03/28 04:57:33;;;;;;;8.50;6.10;;;;;;;;;;5049731;28;20213;-90
2022/03/28 05:00:00;;;;;;;10.63;6.10;;;;;;;;;;5058958;28;20202;-89
2022/03/28 05:02:28;;;;;;;10.30;6.10;;;;;;;;;;5050250;28;20209;-89
2022/03/28 05:04:55;;;;;;;9.90;6.07;;;;;;;;;;5048551;28;20222;-89
2022/03/28 05:07:27;;;;;;;9.67;5.50;;;;;;;;;;5039920;28;20268;-89
2022/03/28 05:09:54;;;;;;;13.13;6.37;;;;;;;;;;5039054;28;20213;-90
2022/03/28 05:12:22;;;;;;;8.97;5.73;;;;;;;;;;5035592;28;20746;-90
2022/03/28 05:14:49;;;;;;;11.03;6.10;;;;;;;;;;5046336;28;20226;-89
2022/03/28 05:17:17;;;;;;;9.77;5.97;;;;;;;;;;5042020;28;20264;-90
2022/03/28 05:19:44;;;;;;;9.37;6.37;;;;;;;;;;5041159;28;20308;-89
2022/03/28 05:22:11;;;;;;;9.63;5.90;;;;;;;;;;5043564;28;20190;-90
2022/03/28 05:24:40;;;;;;;10.20;6.80;;;;;;;;;;5043783;28;20279;-90
2022/03/28 05:27:08;;;;;;;10.60;6.53;;;;;;;;;;5040264;28;20202;-90
2022/03/28 05:29:35;;;;;;;12.40;6.50;;;;;;;;;;5048806;28;20718;-90
2022/03/28 05:32:03;;;;;;;9.87;6.53;;;;;;;;;;5068905;28;20205;-89
2022/03/28 05:34:31;;;;;;;9.47;6.47;;;;;;;;;;5051720;28;20230;-89
2022/03/28 05:36:58;;;;;;;11.80;6.27;;;;;;;;;;5048168;28;20207;-89
2022/03/28 05:39:26;;;;;;;10.47;6.30;;;;;;;;;;5051458;28;20206;-89
2022/03/28 05:41:54;;;;;;;9.97;5.40;;;;;;;;;;5054457;28;20210;-89
2022/03/28 05:44:22;;;;;;;8.20;5.93;;;;;;;;;;5046613;28;20287;-89
2022/03/28 05:46:50;;;;;;;10.33;5.57;;;;;;;;;;5056633;28;20565;-87
2022/03/28 05:49:18;;;;;;;8.87;5.80;;;;;;;;;;5075388;28;20202;-87
2022/03/28 05:51:45;;;;;;;12.50;6.83;;;;;;;;;;5066383;28;20209;-87
2022/03/28 05:54:12;;;;;;;13.63;6.73;;;;;;;;;;5049705;28;20336;-88
2022/03/28 05:56:40;;;;;;;9.70;6.50;;;;;;;;;;5055544;28;20217;-88
2022/03/28 05:59:09;;;;;;;8.70;5.97;;;;;;;;;;5072876;28;20228;-88
2022/03/28 06:01:36;;;;;;;10.90;6.00;;;;;;;;;;5081408;28;20217;-89
2022/03/28 06:04:04;;;;;;;14.67;5.77;;;;;;;;;;5075974;28;20248;-89
2022/03/28 06:06:32;;;;;;;16.33;6.13;;;;;;;;;;5075404;28;20273;-88
2022/03/28 06:08:59;;;;;;;15.00;6.10;;;;;;;;;;5070988;28;20300;-88
2022/03/28 06:11:27;;;;;;;15.13;6.60;;;;;;;;;;5067541;28;20221;-88
2022/03/28 06:13:57;;;;;;;14.00;6.60;;;;;;;;;;5069690;28;20206;-89
2022/03/28 06:16:25;;;;;;;9.80;5.87;;;;;;;;;;5073421;28;20206;-88
2022/03/28 06:18:53;;;;;;;10.73;6.27;;;;;;;;;;5073434;28;20202;-89
2022/03/28 06:21:20;;;;;;;11.93;6.80;;;;;;;;;;5066187;28;20206;-89
2022/03/28 06:23:47;;;;;;;9.47;6.23;;;;;;;;;;5061416;28;20237;-88
2022/03/28 06:26:16;;;;;;;13.83;7.17;;;;;;;;;;5081083;28;20259;-89
2022/03/28 06:28:44;;;;;;;15.67;7.10;;;;;;;;;;5069650;28;20232;-89
2022/03/28 06:31:11;;;;;;;11.43;7.00;;;;;;;;;;5081034;28;20608;-88
2022/03/28 06:33:40;;;;;;;15.90;7.03;;;;;;;;;;5084231;28;20216;-88
2022/03/28 06:36:08;;;;;;;16.33;7.37;;;;;;;;;;5092850;28;20200;-89
2022/03/28 06:38:35;;;;;;;12.53;7.20;;;;;;;;;;5077698;28;20214;-89
2022/03/28 06:41:02;;;;;;;14.73;8.00;;;;;;;;;;5070696;28;20198;-88
2022/03/28 06:43:30;;;;;;;14.60;8.33;;;;;;;;;;5071418;28;20202;-89
2022/03/28 06:45:57;;;;;;;24.03;14.30;;;;;;;;;;5064791;28;20218;-89
2022/03/28 06:48:25;;;;;;;16.27;8.10;;;;;;;;;;5066773;28;20274;-87
2022/03/28 06:50:53;;;;;;;17.13;8.43;;;;;;;;;;5061863;28;20231;-88
2022/03/28 06:53:21;;;;;;;14.43;7.67;;;;;;;;;;5056004;28;20209;-87
2022/03/28 06:55:48;;;;;;;12.17;7.67;;;;;;;;;;5054571;28;20649;-87
2022/03/28 06:58:16;;;;;;;14.07;7.43;;;;;;;;;;5082145;28;20645;-87
2022/03/28 07:00:44;;;;;;;13.77;7.80;;;;;;;;;;5066635;28;20218;-87
2022/03/28 07:03:11;;;;;;;13.40;7.53;;;;;;;;;;5060598;28;20559;-87
2022/03/28 07:05:38;;;;;;;16.40;8.10;;;;;;;;;;5046393;28;20225;-88
2022/03/28 07:08:08;;;;;;;13.60;7.33;;;;;;;;;;5052563;28;20202;-88
2022/03/28 07:10:35;;;;;;;13.90;7.73;;;;;;;;;;5056965;28;20229;-88
2022/03/28 07:13:03;;;;;;;15.33;8.30;;;;;;;;;;5052544;28;20208;-88
2022/03/28 07:15:30;;;;;;;12.13;7.87;;;;;;;;;;5047286;28;20235;-87
2022/03/28 07:18:02;;;;;;;13.63;7.80;;;;;;;;;;5047692;28;20225;-88
2022/03/28 07:20:30;;;;;;;13.17;8.27;;;;;;;;;;5047068;28;20206;-88
2022/03/28 07:22:58;;;;;;;12.70;8.60;;;;;;;;;;5045589;28;20198;-88
2022/03/28 07:25:28;;;;;;;29.57;15.87;;;;;;;;;;5048684;28;20234;-88
2022/03/28 07:27:55;;;;;;;13.53;8.47;;;;;;;;;;5063247;28;20209;-88
2022/03/28 07:30:23;;;;;;;15.17;10.27;;;;;;;;;;5052637;28;20740;-88
2022/03/28 07:32:51;;;;;;;15.50;9.07;;;;;;;;;;5052486;28;20210;-88
2022/03/28 07:35:19;;;;;;;12.67;8.90;;;;;;;;;;5055602;28;20305;-88
2022/03/28 07:37:47;;;;;;;20.60;8.83;;;;;;;;;;5077918;28;20381;-88
2022/03/28 07:40:15;;;;;;;14.73;8.37;;;;;;;;;;5071200;28;20624;-88
2022/03/28 07:42:44;;;;;;;32.53;10.00;;;;;;;;;;5052962;28;20206;-88
2022/03/28 07:45:14;;;;;;;16.27;8.80;;;;;;;;;;5047694;28;20236;-88
2022/03/28 07:47:41;;;;;;;14.13;9.03;;;;;;;;;;5072920;28;20667;-88
2022/03/28 07:50:09;;;;;;;13.10;8.83;;;;;;;;;;5061343;28;20268;-88
2022/03/28 07:52:36;;;;;;;13.53;8.17;;;;;;;;;;5065010;28;20209;-88
2022/03/28 07:55:05;;;;;;;13.63;8.30;;;;;;;;;;5058832;28;20276;-88
2022/03/28 07:57:32;;;;;;;14.10;8.70;;;;;;;;;;5050761;28;20224;-88
2022/03/28 08:00:01;;;;;;;14.97;9.20;;;;;;;;;;5044145;28;20210;-88
2022/03/28 08:02:28;;;;;;;14.87;8.77;;;;;;;;;;5048738;28;20657;-88
2022/03/28 08:04:56;;;;;;;15.37;9.03;;;;;;;;;;5067606;28;20237;-88
2022/03/28 08:07:23;;;;;;;34.47;19.23;;;;;;;;;;5051042;28;20677;-88
2022/03/28 08:09:51;;;;;;;17.80;9.70;;;;;;;;;;5046212;28;20637;-88
2022/03/28 08:12:19;;;;;;;55.70;29.27;;;;;;;;;;5062700;28;20209;-88
2022/03/28 08:14:46;;;;;;;18.70;9.20;;;;;;;;;;5051346;28;20222;-88
2022/03/28 08:17:15;;;;;;;20.93;9.87;;;;;;;;;;5036749;28;20206;-88
2022/03/28 08:19:42;;;;;;;17.73;10.10;;;;;;;;;;5065058;28;20259;-88
2022/03/28 08:22:09;;;;;;;18.07;8.97;;;;;;;;;;5069132;28;20209;-88
2022/03/28 08:24:36;;;;;;;17.27;9.10;;;;;;;;;;5052348;28;20808;-88
2022/03/28 08:27:04;;;;;;;19.37;8.90;;;;;;;;;;5057060;28;20260;-88
2022/03/28 08:29:32;;;;;;;14.70;8.97;;;;;;;;;;5049446;28;20259;-88
2022/03/28 08:32:00;;;;;;;14.33;9.50;;;;;;;;;;5040251;28;20281;-87
2022/03/28 08:34:29;;;;;;;16.47;9.50;;;;;;;;;;5045802;28;20319;-87
2022/03/28 08:36:56;;;;;;;17.27;10.47;;;;;;;;;;5066988;28;20205;-88
2022/03/28 08:39:24;;;;;;;17.63;8.73;;;;;;;;;;5058224;28;20270;-88
2022/03/28 08:41:51;;;;;;;17.20;9.20;;;;;;;;;;5032579;28;20209;-88
2022/03/28 08:44:20;;;;;;;15.77;8.70;;;;;;;;;;5056720;28;20249;-88
2022/03/28 08:46:49;;;;;;;17.67;9.20;;;;;;;;;;5048740;28;20263;-88
2022/03/28 08:49:20;;;;;;;16.03;9.43;;;;;;;;;;5044475;28;20726;-88
2022/03/28 08:51:49;;;;;;;18.90;9.57;;;;;;;;;;5062605;28;20237;-87
2022/03/28 08:54:17;;;;;;;16.97;9.43;;;;;;;;;;5063299;28;20220;-87
2022/03/28 08:56:44;;;;;;;16.43;9.77;;;;;;;;;;5072737;28;20209;-88
2022/03/28 08:59:12;;;;;;;14.63;9.10;;;;;;;;;;5055720;28;20198;-86
2022/03/28 09:01:39;;;;;;;15.03;9.67;;;;;;;;;;5047664;28;20229;-86
2022/03/28 09:04:10;;;;;;;18.73;10.10;;;;;;;;;;5071930;28;20226;-88
2022/03/28 09:06:38;;;;;;;15.63;9.33;;;;;;;;;;5061639;28;20227;-86
2022/03/28 09:09:15;;;;;;;16.43;9.30;;;;;;;;;;5056439;28;20700;-89
2022/03/28 09:11:43;;;;;;;17.47;10.30;;;;;;;;;;5053704;28;20217;-86
2022/03/28 09:14:14;;;;;;;16.13;9.77;;;;;;;;;;5050129;28;20693;-86
2022/03/28 09:16:42;;;;;;;16.73;9.73;;;;;;;;;;5043451;28;20244;-86
2022/03/28 09:19:11;;;;;;;21.67;11.57;;;;;;;;;;5047176;28;20195;-86
2022/03/28 09:21:39;;;;;;;15.57;10.10;;;;;;;;;;5054453;28;20194;-86
2022/03/28 09:24:10;;;;;;;18.00;9.87;;;;;;;;;;5049561;28;20221;-86
2022/03/28 09:26:39;;;;;;;19.00;9.70;;;;;;;;;;5042324;28;20699;-86
2022/03/28 09:29:07;;;;;;;18.43;9.53;;;;;;;;;;5043373;28;20259;-86
2022/03/28 09:31:36;;;;;;;16.60;10.20;;;;;;;;;;5064437;28;20271;-86
2022/03/28 09:34:11;;;;;;;17.17;10.37;;;;;;;;;;5052938;28;20226;-87
2022/03/28 09:36:40;;;;;;;21.30;10.47;;;;;;;;;;5058366;28;20561;-86
2022/03/28 09:39:09;;;;;;;16.60;9.50;;;;;;;;;;5060071;28;20262;-86
2022/03/28 09:41:36;;;;;;;19.07;9.93;;;;;;;;;;5052779;28;20202;-86
2022/03/28 09:44:07;;;;;;;18.33;10.43;;;;;;;;;;5058211;28;20229;-86
2022/03/28 09:46:37;;;;;;;18.03;10.37;;;;;;;;;;5055819;28;20217;-86
2022/03/28 09:49:04;;;;;;;16.83;10.27;;;;;;;;;;5051774;28;20740;-86
2022/03/28 09:51:34;;;;;;;14.00;9.77;;;;;;;;;;5049466;28;20232;-86
2022/03/28 09:54:02;;;;;;;19.47;10.30;;;;;;;;;;5055630;28;20244;-86
2022/03/28 09:56:29;;;;;;;17.87;9.67;;;;;;;;;;5065964;28;20402;-86
2022/03/28 09:59:00;;;;;;;14.10;9.27;;;;;;;;;;5062895;28;20206;-86
2022/03/28 10:01:32;;;;;;;29.67;11.80;;;;;;;;;;5041873;28;20271;-87
2022/03/28 10:04:03;;;;;;;20.30;9.80;;;;;;;;;;5069879;28;20201;-87
2022/03/28 10:06:31;;;;;;;19.60;10.40;;;;;;;;;;5071527;28;20236;-87
2022/03/28 10:08:59;;;;;;;17.83;10.07;;;;;;;;;;5057132;28;20213;-88
2022/03/28 10:11:27;;;;;;;17.63;9.67;;;;;;;;;;5051213;28;20259;-88
2022/03/28 10:13:54;;;;;;;20.13;11.00;;;;;;;;;;5069174;28;20228;-88
2022/03/28 10:16:22;;;;;;;20.33;10.17;;;;;;;;;;5071155;28;20663;-87
2022/03/28 10:18:50;;;;;;;21.20;10.67;;;;;;;;;;5051328;28;20252;-87
2022/03/28 10:21:19;;;;;;;18.57;10.07;;;;;;;;;;5058268;28;20690;-88
2022/03/28 10:23:50;;;;;;;17.67;10.33;;;;;;;;;;5051108;28;20222;-88
2022/03/28 10:26:18;;;;;;;19.73;10.87;;;;;;;;;;5046627;28;20206;-88
2022/03/28 10:29:00;;;;;;;22.27;11.43;;;;;;;;;;5034137;28;20266;-88
2022/03/28 10:31:29;;;;;;;20.27;10.40;;;;;;;;;;5056878;28;20226;-88
2022/03/28 10:33:58;;;;;;;18.13;10.70;;;;;;;;;;5050648;28;20233;-88
2022/03/28 10:36:29;;;;;;;22.27;11.33;;;;;;;;;;5048594;28;20197;-89
2022/03/28 10:39:17;;;;;;;18.17;10.83;;;;;;;;;;5059197;28;20234;-89
2022/03/28 10:41:45;;;;;;;17.67;10.13;;;;;;;;;;5048339;28;20290;-89
2022/03/28 10:44:12;;;;;;;44.43;13.60;;;;;;;;;;5062400;28;20219;-89
2022/03/28 10:46:40;;;;;;;23.70;10.63;;;;;;;;;;5074515;28;20204;-89
2022/03/28 10:49:09;;;;;;;18.77;10.50;;;;;;;;;;5054636;28;20242;-86
2022/03/28 10:51:36;;;;;;;19.97;10.40;;;;;;;;;;5058750;28;20226;-86
2022/03/28 10:54:05;;;;;;;23.47;9.87;;;;;;;;;;5054724;28;20228;-86
2022/03/28 10:56:34;;;;;;;22.90;11.63;;;;;;;;;;5048125;28;20216;-87
2022/03/28 10:59:02;;;;;;;15.67;10.00;;;;;;;;;;5049586;28;20259;-87
2022/03/28 11:01:31;;;;;;;17.97;10.47;;;;;;;;;;5058562;28;20268;-87
2022/03/28 11:04:02;;;;;;;19.07;10.87;;;;;;;;;;5049707;28;20234;-87
2022/03/28 11:06:49;;;;;;;36.70;11.23;;;;;;;;;;5045138;28;20217;-86
2022/03/28 11:09:16;;;;;;;20.93;10.30;;;;;;;;;;5045814;28;20202;-86
2022/03/28 11:12:00;;;;;;;21.00;10.60;;;;;;;;;;5050108;28;20224;-86
2022/03/28 11:14:40;;;;;;;20.97;10.40;;;;;;;;;;5042756;28;20233;-87
2022/03/28 11:17:14;;;;;;;18.80;10.53;;;;;;;;;;5052966;28;20202;-86
2022/03/28 11:19:52;;;;;;;27.13;11.37;;;;;;;;;;5070310;28;20247;-86
2022/03/28 11:22:38;;;;;;;20.87;11.03;;;;;;;;;;5065332;28;20645;-86
2022/03/28 11:25:06;;;;;;;17.17;10.97;;;;;;;;;;5044882;28;20213;-86
2022/03/28 11:27:36;;;;;;;18.13;10.17;;;;;;;;;;5070063;28;20260;-86
2022/03/28 11:30:05;;;;;;;17.77;10.50;;;;;;;;;;5067044;28;20324;-87
2022/03/28 11:32:33;;;;;;;18.83;10.57;;;;;;;;;;5042448;28;20229;-87
2022/03/28 11:35:00;;;;;;;16.90;9.60;;;;;;;;;;5058557;28;20220;-87
2022/03/28 11:37:30;;;;;;;19.70;10.20;;;;;;;;;;5069859;28;20229;-87
2022/03/28 11:39:58;;;;;;;15.37;9.77;;;;;;;;;;5041369;28;20210;-86
2022/03/28 11:42:26;;;;;;;18.30;9.43;;;;;;;;;;5045416;28;20264;-87
2022/03/28 11:44:54;;;;;;;16.83;9.43;;;;;;;;;;5049193;28;20311;-87
2022/03/28 11:47:21;;;;;;;13.37;8.97;;;;;;;;;;5049719;28;20630;-87
2022/03/28 11:49:55;;;;;;;23.37;9.13;;;;;;;;;;5037621;28;20206;-87
2022/03/28 11:52:24;;;;;;;15.43;8.87;;;;;;;;;;5056728;28;20596;-86
2022/03/28 11:54:55;;;;;;;15.87;8.67;;;;;;;;;;5069218;28;20227;-87
2022/03/28 12:00:12;;;;;;;17.00;9.43;;;;;;;;;;5051623;28;20205;-87
2022/03/28 12:02:47;;;;;;;13.60;8.77;;;;;;;;;;5064569;28;20202;-87
2022/03/28 12:05:14;;;;;;;13.60;7.83;;;;;;;;;;5069531;28;20315;-87
2022/03/28 12:07:42;;;;;;;13.93;9.20;;;;;;;;;;5054836;28;20233;-87
2022/03/28 12:10:11;;;;;;;13.40;9.17;;;;;;;;;;5041472;28;20233;-87
2022/03/28 12:12:38;;;;;;;16.97;9.57;;;;;;;;;;5057151;28;20218;-87
2022/03/28 12:15:11;;;;;;;13.90;9.03;;;;;;;;;;5049048;28;20293;-87
2022/03/28 12:17:39;;;;;;;14.90;9.00;;;;;;;;;;5042747;28;20209;-87
2022/03/28 12:20:07;;;;;;;14.40;9.20;;;;;;;;;;5051834;28;20275;-87
2022/03/28 12:22:44;;;;;;;16.40;9.10;;;;;;;;;;5069001;28;20278;-87
2022/03/28 12:25:23;;;;;;;18.17;9.20;;;;;;;;;;5046266;28;20278;-87
2022/03/28 12:27:53;;;;;;;13.37;8.57;;;;;;;;;;5065108;28;20224;-86
2022/03/28 12:30:20;;;;;;;13.67;8.50;;;;;;;;;;5049058;28;20620;-87
2022/03/28 12:32:47;;;;;;;15.33;8.77;;;;;;;;;;5040384;28;20231;-87
2022/03/28 12:35:17;;;;;;;15.17;9.23;;;;;;;;;;5063454;28;20218;-87
2022/03/28 12:37:44;;;;;;;15.67;8.50;;;;;;;;;;5065869;28;20569;-87
2022/03/28 12:40:12;;;;;;;17.50;9.13;;;;;;;;;;5068634;28;20229;-87
2022/03/28 12:42:44;;;;;;;15.23;9.13;;;;;;;;;;5049776;28;20284;-87
2022/03/28 12:45:13;;;;;;;13.20;8.50;;;;;;;;;;5040406;28;20236;-87
2022/03/28 12:47:41;;;;;;;15.33;8.77;;;;;;;;;;5048472;28;20222;-87
2022/03/28 12:50:10;;;;;;;13.10;8.27;;;;;;;;;;5040506;28;20255;-87
2022/03/28 12:52:39;;;;;;;13.67;8.80;;;;;;;;;;5061278;28;20247;-87
2022/03/28 12:55:07;;;;;;;16.00;9.27;;;;;;;;;;5068180;28;20225;-86
2022/03/28 12:57:37;;;;;;;14.37;8.70;;;;;;;;;;5061021;28;20218;-86
2022/03/28 13:00:06;;;;;;;18.40;9.47;;;;;;;;;;5055826;28;20560;-87
2022/03/28 13:02:33;;;;;;;13.00;8.10;;;;;;;;;;5047926;28;20712;-87
2022/03/28 13:05:01;;;;;;;16.43;8.90;;;;;;;;;;5048188;28;20315;-88
2022/03/28 13:07:29;;;;;;;16.83;9.57;;;;;;;;;;5045299;28;20202;-87
2022/03/28 13:09:57;;;;;;;20.00;9.87;;;;;;;;;;5059480;28;20213;-86
2022/03/28 13:12:34;;;;;;;16.10;9.80;;;;;;;;;;5054458;28;20275;-87
2022/03/28 13:15:02;;;;;;;21.43;9.97;;;;;;;;;;5044572;28;20234;-87
2022/03/28 13:17:30;;;;;;;11.50;8.17;;;;;;;;;;5055524;28;20240;-87
2022/03/28 13:19:58;;;;;;;16.40;8.63;;;;;;;;;;5048714;28;20233;-87
2022/03/28 13:22:30;;;;;;;11.80;8.47;;;;;;;;;;5043819;28;20688;-87
2022/03/28 13:25:09;;;;;;;21.73;9.90;;;;;;;;;;5043244;28;20245;-87
2022/03/28 13:30:24;;;;;;;20.13;9.33;;;;;;;;;;5035956;28;20213;-87
2022/03/28 13:32:53;;;;;;;25.30;10.17;;;;;;;;;;5053856;28;20282;-87
2022/03/28 13:35:20;;;;;;;21.50;10.13;;;;;;;;;;5054307;28;20311;-87
2022/03/28 13:37:54;;;;;;;16.63;9.87;;;;;;;;;;5039932;28;20211;-87
2022/03/28 13:40:22;;;;;;;15.93;9.57;;;;;;;;;;5045183;28;20655;-87
2022/03/28 13:42:49;;;;;;;21.63;11.10;;;;;;;;;;5060852;28;20201;-86
2022/03/28 13:45:17;;;;;;;16.20;10.23;;;;;;;;;;5052583;28;20559;-86
2022/03/28 13:47:44;;;;;;;16.73;10.60;;;;;;;;;;5039775;28;20648;-87
2022/03/28 13:50:12;;;;;;;19.13;11.00;;;;;;;;;;5051034;28;20721;-86
2022/03/28 13:52:40;;;;;;;18.67;11.03;;;;;;;;;;5052493;28;20226;-87
2022/03/28 13:55:07;;;;;;;19.00;10.57;;;;;;;;;;5042111;28;20758;-86
2022/03/28 13:57:35;;;;;;;16.27;10.03;;;;;;;;;;5042637;28;20197;-87
2022/03/28 14:00:02;;;;;;;15.33;10.20;;;;;;;;;;5058752;28;20201;-87
2022/03/28 14:02:29;;;;;;;17.97;10.20;;;;;;;;;;5056218;28;20247;-87
2022/03/28 14:04:56;;;;;;;17.23;10.57;;;;;;;;;;5038768;28;20693;-87
2022/03/28 14:07:25;;;;;;;19.43;11.03;;;;;;;;;;5054341;28;20652;-87
2022/03/28 14:09:52;;;;;;;17.20;10.70;;;;;;;;;;5048620;28;20225;-87
2022/03/28 14:12:19;;;;;;;17.70;11.13;;;;;;;;;;5040169;28;20369;-87
2022/03/28 14:14:46;;;;;;;18.97;11.23;;;;;;;;;;5040413;28;20704;-87
2022/03/28 14:17:14;;;;;;;17.90;10.20;;;;;;;;;;5049760;28;20238;-87
2022/03/28 14:19:43;;;;;;;23.30;10.70;;;;;;;;;;5044316;28;20210;-87
2022/03/28 14:22:10;;;;;;;22.63;10.57;;;;;;;;;;5039995;28;20207;-87
2022/03/28 14:24:38;;;;;;;17.73;10.23;;;;;;;;;;5042739;28;20923;-84
2022/03/28 14:27:06;;;;;;;21.23;10.17;;;;;;;;;;5044545;28;20627;-84
2022/03/28 14:29:34;;;;;;;17.50;10.17;;;;;;;;;;5041655;28;20613;-84
2022/03/28 14:32:01;;;;;;;14.00;9.03;;;;;;;;;;5039594;28;20252;-84
2022/03/28 14:34:28;;;;;;;17.87;9.10;;;;;;;;;;5053380;28;20253;-84
2022/03/28 14:36:56;;;;;;;22.33;10.30;;;;;;;;;;5056058;28;20244;-85
2022/03/28 14:39:23;;;;;;;20.53;10.30;;;;;;;;;;5048724;28;20206;-87
2022/03/28 14:41:52;;;;;;;24.97;9.50;;;;;;;;;;5048109;28;20727;-87
2022/03/28 14:44:19;;;;;;;18.20;9.70;;;;;;;;;;5052331;28;20257;-87
2022/03/28 14:47:01;;;;;;;26.13;10.77;;;;;;;;;;5050115;28;20201;-87